Time;durP1;ratioP1;P1;durP2;ratioP2;P2;SDS_P1;SDS_P2;PMS_P1;PMS_P2;Temp;Humidity;BMP_temperature;BMP_pressure;BME280_temperature;BME280_humidity;BME280_pressure;Samples;Min_cycle;Max_cycle;Signal;HPM_P1;HPM_P2
2022/07/31 00:01:06;;;;;;;22.95;15.02;;;;;;;19.92;64.35;101635.19;5108954;28;20051;-60
2022/07/31 00:03:32;;;;;;;22.35;15.52;;;;;;;19.87;64.44;101633.44;5109561;28;20074;-60
2022/07/31 00:05:57;;;;;;;21.98;15.55;;;;;;;19.70;65.15;101608.34;5109351;28;20458;-60
2022/07/31 00:08:22;;;;;;;22.95;15.05;;;;;;;19.73;65.38;101630.94;5109371;28;20024;-60
2022/07/31 00:10:48;;;;;;;23.30;15.48;;;;;;;19.62;65.98;101608.13;5109377;28;20076;-60
2022/07/31 00:13:13;;;;;;;23.42;15.57;;;;;;;19.66;65.79;101611.03;5109079;28;20114;-60
2022/07/31 00:15:39;;;;;;;22.45;15.65;;;;;;;19.63;66.27;101617.38;5109336;28;20023;-61
2022/07/31 00:18:05;;;;;;;22.25;14.93;;;;;;;19.44;66.60;101590.69;5109466;28;20035;-61
2022/07/31 00:20:30;;;;;;;21.42;14.95;;;;;;;19.64;66.46;101613.41;5109281;28;20061;-61
2022/07/31 00:22:56;;;;;;;22.52;15.25;;;;;;;19.54;66.95;101609.06;5109071;28;20081;-61
2022/07/31 00:25:21;;;;;;;20.40;14.68;;;;;;;19.51;66.91;101595.72;5108489;28;20537;-59
2022/07/31 00:27:47;;;;;;;23.38;14.80;;;;;;;19.61;66.51;101614.09;5108768;28;20080;-59
2022/07/31 00:30:12;;;;;;;23.23;15.07;;;;;;;19.63;66.70;101603.34;5108470;28;20058;-60
2022/07/31 00:32:38;;;;;;;22.38;15.75;;;;;;;19.40;66.70;101564.50;5108539;28;20065;-60
2022/07/31 00:35:04;;;;;;;21.58;15.05;;;;;;;19.67;66.60;101601.44;5108628;28;20067;-60
2022/07/31 00:37:29;;;;;;;24.20;16.13;;;;;;;19.60;66.92;101598.41;5109122;28;20447;-60
2022/07/31 00:39:55;;;;;;;21.65;15.38;;;;;;;19.54;67.71;101597.03;5109306;28;20451;-60
2022/07/31 00:42:22;;;;;;;22.63;15.00;;;;;;;19.58;67.00;101609.16;5108415;28;20466;-60
2022/07/31 00:44:49;;;;;;;21.80;15.23;;;;;;;19.42;67.11;101580.97;5108427;28;20031;-60
2022/07/31 00:47:16;;;;;;;21.30;14.25;;;;;;;19.51;66.98;101587.28;5108602;28;20043;-60
2022/07/31 00:49:42;;;;;;;22.58;14.75;;;;;;;19.64;67.26;101605.78;5108339;28;20031;-60
2022/07/31 00:52:07;;;;;;;22.83;14.15;;;;;;;19.70;66.49;101606.38;5109576;28;20350;-60
2022/07/31 00:54:34;;;;;;;22.65;14.70;;;;;;;19.73;66.34;101602.03;5112373;28;20119;-59
2022/07/31 00:57:00;;;;;;;23.77;14.60;;;;;;;19.64;66.07;101582.53;5111929;28;20026;-60
2022/07/31 00:59:26;;;;;;;21.45;13.30;;;;;;;19.72;65.70;101595.63;5112006;28;20019;-60
2022/07/31 01:01:52;;;;;;;21.27;14.07;;;;;;;19.77;65.39;101598.19;5111857;28;20019;-60
2022/07/31 01:04:17;;;;;;;21.17;13.32;;;;;;;19.76;65.52;101588.13;5111967;28;20367;-60
2022/07/31 01:06:43;;;;;;;21.63;13.85;;;;;;;19.62;65.64;101576.44;5111927;28;20035;-60
2022/07/31 01:09:09;;;;;;;21.70;13.05;;;;;;;19.59;65.18;101571.50;5112030;28;20481;-60
2022/07/31 01:11:46;;;;;;;22.30;13.80;;;;;;;19.63;65.31;101580.88;5111859;28;20023;-59
2022/07/31 01:14:14;;;;;;;21.67;13.23;;;;;;;19.58;65.06;101569.88;5112282;28;20469;-59
2022/07/31 01:16:47;;;;;;;22.42;13.88;;;;;;;19.65;64.72;101581.31;5111750;28;20024;-60
2022/07/31 01:19:33;;;;;;;20.80;12.88;;;;;;;19.60;64.20;101565.53;5111845;28;20499;-61
2022/07/31 01:22:13;;;;;;;21.83;13.20;;;;;;;19.59;64.68;101582.75;5112019;28;20027;-61
2022/07/31 01:24:44;;;;;;;21.70;13.82;;;;;;;19.54;64.67;101580.19;5111867;28;20027;-59
2022/07/31 01:27:25;;;;;;;20.58;13.48;;;;;;;19.47;64.89;101580.75;5111585;28;20114;-59
2022/07/31 01:29:53;;;;;;;22.27;12.95;;;;;;;19.51;64.68;101587.28;5111802;28;20062;-60
2022/07/31 01:32:31;;;;;;;21.08;12.77;;;;;;;19.52;64.11;101585.31;5111656;28;20143;-60
2022/07/31 01:35:19;;;;;;;21.50;12.45;;;;;;;19.48;64.14;101586.00;5111524;28;20169;-59
2022/07/31 01:37:51;;;;;;;20.05;12.50;;;;;;;19.46;63.99;101584.72;5111256;28;20032;-60
2022/07/31 01:40:24;;;;;;;20.80;12.82;;;;;;;19.37;63.90;101568.00;5111347;28;20073;-60
2022/07/31 01:42:55;;;;;;;19.55;12.35;;;;;;;19.40;63.68;101580.53;5111339;28;20149;-60
2022/07/31 01:45:21;;;;;;;21.30;11.70;;;;;;;19.38;63.65;101586.47;5111504;28;20036;-60
2022/07/31 01:47:48;;;;;;;19.92;11.82;;;;;;;19.27;63.46;101569.28;5111419;28;20561;-60
2022/07/31 01:50:14;;;;;;;21.90;12.18;;;;;;;19.16;63.58;101551.25;5111362;28;20134;-60
2022/07/31 01:52:41;;;;;;;21.27;12.23;;;;;;;19.26;63.69;101562.03;5111809;28;20027;-59
2022/07/31 01:55:09;;;;;;;22.60;13.70;;;;;;;19.34;63.99;101577.13;5111953;28;20020;-60
2022/07/31 01:57:37;;;;;;;24.08;13.68;;;;;;;19.19;64.14;101553.38;5111352;28;20392;-60
2022/07/31 02:00:06;;;;;;;22.10;14.10;;;;;;;19.31;64.22;101580.63;5111056;28;20565;-60
2022/07/31 02:02:33;;;;;;;23.75;13.98;;;;;;;19.22;64.51;101575.13;5110456;28;20110;-60
2022/07/31 02:05:01;;;;;;;19.85;12.68;;;;;;;19.14;64.96;101568.44;5110572;28;20138;-60
2022/07/31 02:07:28;;;;;;;21.90;13.50;;;;;;;19.16;64.86;101582.09;5110952;28;20028;-60
2022/07/31 02:09:55;;;;;;;20.58;12.73;;;;;;;19.17;65.53;101586.56;5110824;28;20076;-60
2022/07/31 02:12:21;;;;;;;23.35;14.07;;;;;;;18.93;65.52;101562.06;5111144;28;20031;-60
2022/07/31 02:14:47;;;;;;;23.88;13.95;;;;;;;18.93;65.92;101560.09;5110760;28;20027;-59
2022/07/31 02:17:14;;;;;;;23.42;14.13;;;;;;;19.06;66.19;101576.94;5110651;28;20093;-60
2022/07/31 02:19:40;;;;;;;21.67;13.55;;;;;;;19.04;65.80;101582.91;5110631;28;20114;-60
2022/07/31 02:22:06;;;;;;;22.50;13.85;;;;;;;18.97;66.09;101569.44;5110953;28;20019;-59
2022/07/31 02:24:33;;;;;;;22.90;13.65;;;;;;;19.02;65.92;101571.22;5111040;28;20032;-60
2022/07/31 02:27:00;;;;;;;22.85;13.95;;;;;;;19.01;65.91;101567.59;5110563;28;20039;-60
2022/07/31 02:29:28;;;;;;;22.58;13.27;;;;;;;18.98;65.83;101573.88;5110688;28;20374;-60
2022/07/31 02:31:55;;;;;;;21.83;13.02;;;;;;;18.97;65.40;101577.84;5110545;28;20115;-60
2022/07/31 02:34:22;;;;;;;21.58;13.05;;;;;;;18.81;65.65;101546.81;5110171;28;20122;-60
2022/07/31 02:36:49;;;;;;;23.10;12.98;;;;;;;18.88;65.71;101560.28;5110063;28;20067;-61
2022/07/31 02:39:15;;;;;;;22.48;12.52;;;;;;;18.93;65.48;101579.72;5110511;28;20043;-60
2022/07/31 02:41:42;;;;;;;21.02;12.52;;;;;;;18.86;65.52;101571.00;5111577;28;20051;-60
2022/07/31 02:44:10;;;;;;;21.45;12.65;;;;;;;18.88;65.61;101590.31;5110093;28;20470;-60
2022/07/31 02:46:36;;;;;;;20.63;12.15;;;;;;;18.78;65.74;101571.91;5110176;28;20023;-61
2022/07/31 02:49:01;;;;;;;21.45;12.75;;;;;;;18.79;65.90;101582.81;5109630;28;20080;-60
2022/07/31 02:51:28;;;;;;;20.00;12.30;;;;;;;18.75;66.22;101583.84;5110198;28;20024;-59
2022/07/31 02:53:53;;;;;;;20.05;12.05;;;;;;;18.71;66.67;101572.47;5110625;28;20034;-60
2022/07/31 02:56:19;;;;;;;21.95;13.07;;;;;;;18.67;66.79;101571.53;5110252;28;20028;-60
2022/07/31 02:58:45;;;;;;;21.80;12.95;;;;;;;18.65;67.28;101571.06;5109965;28;20024;-60
2022/07/31 03:01:10;;;;;;;22.45;12.70;;;;;;;18.61;67.42;101567.31;5109614;28;20122;-61
2022/07/31 03:03:35;;;;;;;20.70;13.35;;;;;;;18.59;68.11;101559.25;5109695;28;20122;-60
2022/07/31 03:06:01;;;;;;;22.55;12.93;;;;;;;18.44;68.64;101552.28;5109731;28;20031;-60
2022/07/31 03:08:26;;;;;;;23.50;13.27;;;;;;;18.48;68.77;101563.63;5109681;28;20100;-60
2022/07/31 03:10:52;;;;;;;22.50;13.48;;;;;;;18.50;68.81;101558.50;5109823;28;20047;-61
2022/07/31 03:13:19;;;;;;;21.17;13.30;;;;;;;18.49;68.95;101559.66;5109745;28;20080;-60
2022/07/31 03:15:47;;;;;;;23.10;13.88;;;;;;;18.32;68.84;101529.84;5109106;28;20066;-60
2022/07/31 03:18:15;;;;;;;23.00;13.95;;;;;;;18.43;69.27;101549.84;5109584;28;20082;-60
2022/07/31 03:20:41;;;;;;;22.60;14.65;;;;;;;18.35;69.68;101551.53;5110218;28;20422;-60
2022/07/31 03:23:09;;;;;;;21.52;14.18;;;;;;;18.15;69.93;101519.59;5109825;28;20028;-61
2022/07/31 03:25:34;;;;;;;21.95;14.55;;;;;;;18.30;70.17;101532.16;5110059;28;20023;-60
2022/07/31 03:28:00;;;;;;;22.88;14.95;;;;;;;18.34;70.33;101535.88;5109566;28;20439;-60
2022/07/31 03:30:25;;;;;;;23.98;14.40;;;;;;;18.19;70.50;101521.38;5109868;28;20032;-60
2022/07/31 03:32:52;;;;;;;22.05;14.52;;;;;;;18.30;70.78;101546.97;5109951;28;20114;-60
2022/07/31 03:35:18;;;;;;;22.27;14.77;;;;;;;18.21;70.71;101547.06;5109800;28;20031;-60
2022/07/31 03:37:44;;;;;;;23.92;14.93;;;;;;;18.20;71.33;101550.19;5109801;28;20355;-60
2022/07/31 03:40:10;;;;;;;23.75;14.88;;;;;;;18.14;71.80;101537.53;5109035;28;20419;-60
2022/07/31 03:42:36;;;;;;;24.25;14.40;;;;;;;18.08;72.13;101539.72;5108991;28;20462;-60
2022/07/31 03:45:04;;;;;;;23.08;15.80;;;;;;;18.11;72.46;101549.41;5108701;28;20088;-61
2022/07/31 03:47:30;;;;;;;22.52;14.95;;;;;;;17.97;73.00;101536.53;5108653;28;20028;-60
2022/07/31 03:49:56;;;;;;;21.80;15.35;;;;;;;17.93;73.08;101541.94;5108891;28;20030;-59
2022/07/31 03:52:22;;;;;;;23.95;15.88;;;;;;;17.84;73.31;101524.41;5108939;28;20079;-60
2022/07/31 03:54:48;;;;;;;22.98;15.25;;;;;;;17.86;73.25;101527.66;5108808;28;20145;-60
2022/07/31 03:57:15;;;;;;;21.98;15.43;;;;;;;17.75;73.55;101526.44;5109144;28;20446;-60
2022/07/31 03:59:41;;;;;;;24.05;16.30;;;;;;;17.85;73.56;101542.84;5109089;28;20072;-60
2022/07/31 04:02:09;;;;;;;25.85;16.35;;;;;;;17.85;74.18;101545.63;5108992;28;20028;-60
2022/07/31 04:04:36;;;;;;;23.52;17.10;;;;;;;17.72;74.51;101541.91;5108962;28;20386;-59
2022/07/31 04:07:02;;;;;;;25.50;16.80;;;;;;;17.55;75.06;101520.47;5108894;28;20075;-60
2022/07/31 04:09:28;;;;;;;25.55;18.23;;;;;;;17.55;75.10;101537.25;5109379;28;20455;-60
2022/07/31 04:11:53;;;;;;;26.58;19.33;;;;;;;17.57;75.35;101532.09;5109292;28;20038;-60
2022/07/31 04:14:18;;;;;;;24.90;17.27;;;;;;;17.61;75.45;101543.47;5110905;28;20028;-60
2022/07/31 04:16:44;;;;;;;25.60;18.20;;;;;;;17.70;75.34;101561.03;5109481;28;20084;-60
2022/07/31 04:19:09;;;;;;;25.98;18.42;;;;;;;17.60;75.45;101539.03;5109276;28;20386;-60
2022/07/31 04:21:35;;;;;;;26.30;19.10;;;;;;;17.54;75.85;101534.75;5109211;28;20390;-60
2022/07/31 04:24:00;;;;;;;28.10;19.17;;;;;;;17.66;75.59;101551.66;5109340;28;20059;-60
2022/07/31 04:26:27;;;;;;;26.27;19.23;;;;;;;17.68;75.98;101551.31;5111157;28;20056;-60
2022/07/31 04:28:53;;;;;;;28.08;19.40;;;;;;;17.67;76.06;101556.09;5113309;28;20556;-60
2022/07/31 04:31:18;;;;;;;27.90;19.35;;;;;;;17.67;75.80;101566.44;5113086;28;20065;-60
2022/07/31 04:33:44;;;;;;;26.42;18.75;;;;;;;17.52;76.10;101542.69;5114289;28;20054;-60
2022/07/31 04:36:09;;;;;;;27.75;19.00;;;;;;;17.67;75.75;101555.25;5112927;28;20371;-61
2022/07/31 04:38:35;;;;;;;27.48;19.00;;;;;;;17.67;75.79;101570.09;5112923;28;20039;-61
2022/07/31 04:41:00;;;;;;;25.92;18.67;;;;;;;17.68;75.86;101562.50;5112787;28;20035;-61
2022/07/31 04:43:25;;;;;;;26.42;18.80;;;;;;;17.72;75.59;101557.88;5112050;28;20047;-60
2022/07/31 04:45:51;;;;;;;27.58;19.67;;;;;;;17.62;75.75;101551.50;5112634;28;20027;-61
2022/07/31 04:48:16;;;;;;;28.60;19.10;;;;;;;17.76;75.76;101553.22;5112716;28;20015;-60
2022/07/31 04:50:41;;;;;;;25.30;18.55;;;;;;;17.73;75.45;101542.75;5112884;28;20024;-60
2022/07/31 04:53:07;;;;;;;27.05;19.35;;;;;;;17.78;75.67;101554.56;5112494;28;20024;-60
2022/07/31 04:55:32;;;;;;;27.23;19.25;;;;;;;17.78;75.80;101554.56;5114428;28;20075;-60
2022/07/31 04:57:57;;;;;;;24.77;18.45;;;;;;;17.78;75.78;101551.75;5112496;28;20024;-61
2022/07/31 05:00:23;;;;;;;25.30;18.17;;;;;;;17.70;75.66;101529.41;5112777;28;20693;-60
2022/07/31 05:02:49;;;;;;;24.23;17.20;;;;;;;17.89;75.56;101554.97;5112867;28;20027;-60
2022/07/31 05:05:15;;;;;;;27.38;18.55;;;;;;;17.84;75.27;101544.00;5112342;28;20031;-60
2022/07/31 05:07:40;;;;;;;23.40;16.25;;;;;;;17.95;75.17;101557.59;5111972;28;20020;-61
2022/07/31 05:10:06;;;;;;;23.40;16.65;;;;;;;17.88;75.59;101541.34;5112223;28;20024;-60
2022/07/31 05:12:31;;;;;;;23.25;17.45;;;;;;;17.89;75.88;101554.97;5111788;28;20034;-61
2022/07/31 05:14:57;;;;;;;25.20;17.38;;;;;;;17.82;76.54;101537.06;5112021;28;20459;-61
2022/07/31 05:17:22;;;;;;;23.17;16.48;;;;;;;17.87;76.67;101542.50;5111945;28;20086;-60
2022/07/31 05:19:47;;;;;;;23.73;17.15;;;;;;;17.87;77.26;101546.09;5112087;28;20054;-60
2022/07/31 05:22:13;;;;;;;23.13;16.25;;;;;;;17.77;77.89;101533.31;5112303;28;20088;-60
2022/07/31 05:24:39;;;;;;;25.38;17.23;;;;;;;17.81;78.93;101541.88;5111567;28;20074;-60
2022/07/31 05:27:04;;;;;;;24.48;16.70;;;;;;;17.82;79.08;101551.06;5111899;28;20096;-60
2022/07/31 05:29:31;;;;;;;23.70;16.75;;;;;;;17.78;80.00;101548.13;5111954;28;20140;-59
2022/07/31 05:31:57;;;;;;;24.77;17.30;;;;;;;17.72;81.37;101535.50;5111603;28;20032;-61
2022/07/31 05:34:25;;;;;;;23.63;16.48;;;;;;;17.76;80.69;101528.88;5112001;28;20028;-61
2022/07/31 05:36:50;;;;;;;22.25;16.17;;;;;;;17.71;81.06;101523.47;5111506;28;20027;-61
2022/07/31 05:39:19;;;;;;;23.88;15.85;;;;;;;17.72;81.65;101521.50;5111374;28;20043;-60
2022/07/31 05:41:47;;;;;;;24.88;15.10;;;;;;;17.73;81.79;101517.56;5111688;28;20040;-60
2022/07/31 05:44:13;;;;;;;22.23;15.00;;;;;;;17.65;82.23;101508.03;5112159;28;20019;-60
2022/07/31 05:46:38;;;;;;;22.00;14.82;;;;;;;17.86;81.50;101526.84;5112236;28;20030;-60
2022/07/31 05:49:04;;;;;;;22.58;14.35;;;;;;;17.91;81.78;101540.63;5111812;28;20031;-60
2022/07/31 05:51:29;;;;;;;23.42;15.57;;;;;;;17.80;81.40;101514.22;5111446;28;20028;-60
2022/07/31 05:53:54;;;;;;;22.30;14.50;;;;;;;17.96;81.12;101529.28;5111409;28;20506;-60
2022/07/31 05:56:20;;;;;;;23.17;13.93;;;;;;;18.05;80.74;101544.03;5111333;28;20077;-60
2022/07/31 05:58:45;;;;;;;23.45;14.00;;;;;;;18.05;81.23;101534.81;5111305;28;20103;-60
2022/07/31 06:01:11;;;;;;;22.88;14.20;;;;;;;17.97;81.06;101516.94;5111345;28;20084;-61
2022/07/31 06:03:39;;;;;;;23.27;13.77;;;;;;;18.12;80.78;101531.47;5111390;28;20447;-60
2022/07/31 06:06:04;;;;;;;21.10;13.80;;;;;;;18.11;81.26;101544.66;5111668;28;20444;-61
2022/07/31 06:08:30;;;;;;;22.00;13.98;;;;;;;18.17;80.90;101546.09;5111310;28;20131;-61
2022/07/31 06:10:56;;;;;;;22.13;13.70;;;;;;;18.14;81.11;101541.16;5111231;28;20447;-61
2022/07/31 06:13:26;;;;;;;21.98;13.20;;;;;;;18.16;81.05;101552.84;5111557;28;20019;-60
2022/07/31 06:15:52;;;;;;;24.23;13.15;;;;;;;18.17;81.15;101545.28;5111190;28;20023;-61
2022/07/31 06:18:17;;;;;;;20.88;12.60;;;;;;;18.19;80.78;101543.78;5111485;28;20084;-60
2022/07/31 06:20:42;;;;;;;21.05;12.70;;;;;;;18.18;81.52;101535.72;5111653;28;20035;-61
2022/07/31 06:23:08;;;;;;;20.42;12.10;;;;;;;18.09;81.52;101525.38;5111365;28;20114;-61
2022/07/31 06:25:33;;;;;;;20.40;12.02;;;;;;;18.17;81.66;101528.47;5111148;28;20360;-61
2022/07/31 06:27:58;;;;;;;20.95;11.95;;;;;;;18.35;80.90;101526.34;5111062;28;20420;-60
2022/07/31 06:30:24;;;;;;;19.92;11.48;;;;;;;18.42;80.64;101535.00;5110631;28;20023;-61
2022/07/31 06:32:49;;;;;;;19.02;11.57;;;;;;;18.50;81.17;101538.88;5110898;28;20065;-60
2022/07/31 06:35:15;;;;;;;20.90;11.43;;;;;;;18.49;80.91;101540.03;5110345;28;20112;-60
2022/07/31 06:37:40;;;;;;;20.17;11.88;;;;;;;18.62;80.69;101540.91;5110421;28;20116;-61
2022/07/31 06:40:06;;;;;;;21.08;11.85;;;;;;;18.69;80.60;101538.38;5110092;28;20137;-60
2022/07/31 06:42:31;;;;;;;20.80;11.48;;;;;;;18.76;80.82;101537.81;5110322;28;20135;-60
2022/07/31 06:44:57;;;;;;;20.13;11.80;;;;;;;18.86;80.67;101535.41;5111011;28;20126;-60
2022/07/31 06:47:24;;;;;;;22.48;11.88;;;;;;;18.82;79.84;101528.84;5110692;28;20039;-61
2022/07/31 06:49:49;;;;;;;20.52;11.85;;;;;;;18.94;79.61;101524.47;5109400;28;20118;-61
2022/07/31 06:52:15;;;;;;;20.88;11.70;;;;;;;19.04;79.44;101538.03;5110747;28;20031;-61
2022/07/31 06:54:42;;;;;;;21.85;11.80;;;;;;;19.09;78.74;101535.00;5110187;28;20043;-61
2022/07/31 06:57:09;;;;;;;21.67;12.02;;;;;;;19.11;78.86;101529.88;5110341;28;20031;-59
2022/07/31 06:59:34;;;;;;;20.65;11.98;;;;;;;19.01;79.47;101525.53;5110500;28;20019;-60
2022/07/31 07:01:59;;;;;;;19.77;11.77;;;;;;;19.13;78.91;101532.31;5110747;28;20474;-59
2022/07/31 07:04:25;;;;;;;19.70;12.05;;;;;;;19.15;78.95;101533.63;5110597;28;20419;-60
2022/07/31 07:06:50;;;;;;;20.35;12.45;;;;;;;19.26;78.84;101535.97;5110278;28;20365;-61
2022/07/31 07:09:16;;;;;;;20.73;12.07;;;;;;;19.29;78.96;101543.66;5109969;28;20429;-60
2022/07/31 07:11:41;;;;;;;21.45;12.93;;;;;;;19.39;78.49;101540.41;5110655;28;20054;-60
2022/07/31 07:14:06;;;;;;;22.20;12.93;;;;;;;19.38;77.86;101529.53;5110244;28;20062;-60
2022/07/31 07:16:32;;;;;;;21.67;12.95;;;;;;;19.42;77.30;101522.06;5109791;28;20116;-61
2022/07/31 07:18:57;;;;;;;21.13;12.82;;;;;;;19.47;78.35;101538.66;5110692;28;20050;-61
2022/07/31 07:21:22;;;;;;;21.73;12.98;;;;;;;19.52;77.82;101534.81;5109681;28;20042;-60
2022/07/31 07:23:48;;;;;;;22.08;13.93;;;;;;;19.43;77.43;101512.47;5109720;28;20467;-61
2022/07/31 07:26:13;;;;;;;23.08;13.40;;;;;;;19.57;77.31;101523.34;5109399;28;20031;-60
2022/07/31 07:28:39;;;;;;;22.23;13.40;;;;;;;19.66;76.87;101524.03;5109914;28;20023;-61
2022/07/31 07:31:04;;;;;;;22.92;13.40;;;;;;;19.72;77.34;101522.63;5110001;28;20106;-60
2022/07/31 07:33:30;;;;;;;22.17;13.63;;;;;;;19.67;77.56;101502.41;5109438;28;20435;-61
2022/07/31 07:35:56;;;;;;;21.80;13.85;;;;;;;19.77;77.28;101516.78;5110008;28;20108;-61
2022/07/31 07:38:22;;;;;;;22.27;14.05;;;;;;;19.68;76.91;101502.03;5109953;28;20076;-61
2022/07/31 07:40:47;;;;;;;23.75;14.45;;;;;;;19.74;76.87;101509.03;5109499;28;20359;-61
2022/07/31 07:43:13;;;;;;;23.60;14.23;;;;;;;19.85;76.54;101516.97;5108923;28;20093;-61
2022/07/31 07:45:38;;;;;;;24.02;14.50;;;;;;;19.94;76.64;101532.56;5109641;28;20482;-61
2022/07/31 07:48:05;;;;;;;26.10;15.25;;;;;;;20.05;76.40;101521.66;5108872;28;20038;-60
2022/07/31 07:50:30;;;;;;;25.75;15.55;;;;;;;20.21;75.62;101520.94;5108976;28;20027;-60
2022/07/31 07:52:56;;;;;;;24.45;14.85;;;;;;;20.29;75.01;101510.69;5109193;28;20076;-61
2022/07/31 07:55:22;;;;;;;24.50;15.43;;;;;;;20.38;74.98;101505.75;5110712;28;20043;-60
2022/07/31 07:57:47;;;;;;;23.85;14.98;;;;;;;20.50;74.96;101504.91;5109695;28;20027;-60
2022/07/31 08:00:13;;;;;;;25.35;15.18;;;;;;;20.66;73.64;101510.53;5109214;28;20028;-60
2022/07/31 08:02:40;;;;;;;24.65;15.95;;;;;;;20.70;73.70;101506.63;5109362;28;20075;-61
2022/07/31 08:05:05;;;;;;;24.70;16.33;;;;;;;20.80;73.48;101512.94;5109901;28;20447;-62
2022/07/31 08:07:35;;;;;;;24.77;15.93;;;;;;;20.69;73.32;101499.38;5108870;28;20022;-61
2022/07/31 08:10:01;;;;;;;28.75;16.40;;;;;;;20.82;73.09;101510.59;5109617;28;20055;-61
2022/07/31 08:12:27;;;;;;;24.90;16.13;;;;;;;20.86;73.90;101514.34;5109259;28;20027;-60
2022/07/31 08:14:53;;;;;;;23.85;15.63;;;;;;;21.00;73.26;101506.25;5108839;28;20498;-60
2022/07/31 08:17:18;;;;;;;25.70;16.23;;;;;;;21.08;72.52;101501.63;5108786;28;20026;-61
2022/07/31 08:19:44;;;;;;;25.02;15.88;;;;;;;21.16;72.21;101497.03;5109018;28;20341;-61
2022/07/31 08:22:10;;;;;;;23.92;15.60;;;;;;;21.27;72.29;101502.91;5108871;28;20031;-61
2022/07/31 08:24:35;;;;;;;25.50;16.15;;;;;;;21.34;71.71;101503.06;5109347;28;20439;-61
2022/07/31 08:29:44;;;;;;;;;;;;;;;21.65;70.57;101502.22;5111528;28;20046;-61
2022/07/31 08:32:10;;;;;;;24.52;15.75;;;;;;;21.70;70.37;101506.75;5109244;28;19907;-61
2022/07/31 08:34:36;;;;;;;23.30;15.00;;;;;;;21.82;69.76;101497.41;5109011;28;20132;-60
2022/07/31 08:37:03;;;;;;;22.40;14.93;;;;;;;21.90;69.85;101489.91;5109410;28;20378;-61
2022/07/31 08:39:29;;;;;;;23.38;14.52;;;;;;;22.15;69.24;101490.44;5109028;28;20020;-61
2022/07/31 08:41:54;;;;;;;23.23;15.18;;;;;;;22.46;68.91;101508.41;5108765;28;20461;-61
2022/07/31 08:44:20;;;;;;;22.17;14.68;;;;;;;22.37;67.85;101483.22;5108893;28;20429;-59
2022/07/31 08:46:45;;;;;;;23.17;15.32;;;;;;;22.36;67.46;101508.97;5108898;28;20038;-60
2022/07/31 08:49:14;;;;;;;23.58;15.15;;;;;;;22.16;68.17;101496.88;5108581;28;20459;-60
2022/07/31 08:51:41;;;;;;;23.98;15.32;;;;;;;22.01;69.29;101502.22;5108692;28;20024;-60
2022/07/31 08:54:12;;;;;;;22.58;14.60;;;;;;;21.95;69.53;101496.06;5108400;28;20034;-60
2022/07/31 08:56:37;;;;;;;23.77;15.43;;;;;;;21.95;69.58;101504.50;5108784;28;20118;-60
2022/07/31 08:59:04;;;;;;;23.08;15.07;;;;;;;21.94;69.42;101500.06;5108373;28;20387;-61
2022/07/31 09:01:32;;;;;;;22.45;14.52;;;;;;;21.96;70.34;101503.34;5108488;28;20049;-61
2022/07/31 09:03:58;;;;;;;22.85;15.00;;;;;;;21.97;69.72;101509.78;5108252;28;20031;-63
2022/07/31 09:06:23;;;;;;;23.00;15.13;;;;;;;21.92;69.83;101519.31;5108889;28;20401;-61
2022/07/31 09:08:49;;;;;;;22.38;14.73;;;;;;;21.85;70.15;101519.16;5108476;28;20034;-61
2022/07/31 09:11:14;;;;;;;22.98;14.50;;;;;;;21.59;71.01;101506.53;5108963;28;20040;-61
2022/07/31 09:14:01;;;;;;;22.52;15.48;;;;;;;21.56;71.04;101510.03;5111139;28;20032;-61
2022/07/31 09:16:27;;;;;;;24.50;15.38;;;;;;;21.65;71.27;101509.88;5112421;28;20202;-61
2022/07/31 09:19:01;;;;;;;22.58;15.20;;;;;;;21.75;71.04;101498.03;5112457;28;20034;-61
2022/07/31 09:21:38;;;;;;;22.63;14.40;;;;;;;21.86;70.82;101484.19;5112603;28;20403;-60
2022/07/31 09:24:03;;;;;;;21.23;14.07;;;;;;;22.04;70.62;101495.88;5112160;28;20026;-61
2022/07/31 09:26:33;;;;;;;23.25;14.95;;;;;;;22.08;70.51;101479.03;5112176;28;20027;-60
2022/07/31 09:29:00;;;;;;;23.40;14.48;;;;;;;22.26;70.95;101497.13;5112102;28;20028;-60
2022/07/31 09:31:31;;;;;;;21.98;14.90;;;;;;;22.36;70.27;101498.50;5111750;28;20062;-61
2022/07/31 09:33:57;;;;;;;21.08;14.10;;;;;;;22.33;69.04;101490.81;5111862;28;20118;-61
2022/07/31 09:36:23;;;;;;;21.13;13.60;;;;;;;22.37;69.10;101496.53;5111773;28;20028;-60
2022/07/31 09:38:49;;;;;;;22.05;14.27;;;;;;;22.40;70.25;101488.16;5111522;28;20024;-61
2022/07/31 09:41:18;;;;;;;21.33;14.15;;;;;;;22.63;69.34;101503.50;5111336;28;20054;-61
2022/07/31 09:43:54;;;;;;;23.33;14.68;;;;;;;22.84;68.27;101494.59;5111523;28;20357;-60
2022/07/31 09:46:20;;;;;;;22.95;14.50;;;;;;;22.95;66.94;101501.25;5111541;28;20210;-60
2022/07/31 09:48:50;;;;;;;23.27;14.48;;;;;;;22.90;67.70;101499.56;5111923;28;20110;-61
2022/07/31 09:51:16;;;;;;;23.23;14.50;;;;;;;22.92;67.38;101498.38;5111976;28;20020;-61
2022/07/31 09:53:56;;;;;;;22.70;13.95;;;;;;;22.96;67.18;101499.25;5112099;28;20499;-62
2022/07/31 09:56:32;;;;;;;20.92;13.60;;;;;;;23.09;66.73;101497.06;5112277;28;20057;-61
2022/07/31 09:58:58;;;;;;;21.60;13.73;;;;;;;23.24;66.90;101487.66;5111699;28;20055;-61
2022/07/31 10:01:28;;;;;;;22.20;13.95;;;;;;;23.41;66.39;101479.84;5111604;28;20032;-61
2022/07/31 10:03:59;;;;;;;19.98;13.63;;;;;;;23.60;65.83;101487.41;5111312;28;20019;-62
2022/07/31 10:06:26;;;;;;;21.95;13.65;;;;;;;23.68;65.30;101487.13;5111490;28;20096;-61
2022/07/31 10:08:54;;;;;;;22.25;13.40;;;;;;;23.81;64.48;101486.91;5111438;28;20024;-61
2022/07/31 10:11:21;;;;;;;21.77;13.77;;;;;;;23.83;64.28;101485.31;5111489;28;20019;-61
2022/07/31 10:13:49;;;;;;;21.90;14.63;;;;;;;23.91;63.66;101482.59;5111462;28;20031;-62
2022/07/31 10:16:15;;;;;;;20.88;13.75;;;;;;;23.93;63.41;101497.97;5111048;28;20035;-61
2022/07/31 10:18:44;;;;;;;21.90;13.98;;;;;;;23.91;64.18;101496.72;5110836;28;20016;-60
2022/07/31 10:21:10;;;;;;;19.73;12.50;;;;;;;23.81;63.79;101493.34;5111087;28;20024;-60
2022/07/31 10:23:39;;;;;;;20.15;13.07;;;;;;;23.88;64.03;101491.84;5110926;28;20068;-61
2022/07/31 10:26:04;;;;;;;20.63;12.40;;;;;;;23.81;63.53;101484.06;5111126;28;20028;-61
2022/07/31 10:28:31;;;;;;;20.92;12.15;;;;;;;23.89;63.61;101480.16;5111112;28;20032;-60
2022/07/31 10:30:57;;;;;;;20.20;12.75;;;;;;;24.03;63.39;101481.56;5110450;28;20027;-61
2022/07/31 10:33:25;;;;;;;20.45;12.13;;;;;;;24.13;62.92;101470.41;5110315;28;20070;-60
2022/07/31 10:36:02;;;;;;;21.65;12.90;;;;;;;24.25;62.52;101463.66;5110289;28;20046;-61
2022/07/31 10:38:42;;;;;;;20.17;11.68;;;;;;;24.37;62.33;101461.78;5110484;28;20143;-61
2022/07/31 10:41:31;;;;;;;20.60;11.88;;;;;;;24.61;61.57;101477.38;5110244;28;20462;-61
2022/07/31 10:44:10;;;;;;;19.13;11.70;;;;;;;24.65;61.33;101461.28;5109942;28;20077;-61
2022/07/31 10:46:36;;;;;;;19.98;11.45;;;;;;;24.68;60.26;101463.34;5110245;28;20363;-61
2022/07/31 10:49:01;;;;;;;19.33;11.20;;;;;;;24.70;59.87;101469.44;5110313;28;20094;-61
2022/07/31 10:51:27;;;;;;;19.80;11.30;;;;;;;24.79;58.88;101462.63;5110222;28;20485;-61
2022/07/31 10:54:06;;;;;;;19.10;10.95;;;;;;;24.76;59.39;101458.56;5110257;28;20122;-61
2022/07/31 10:56:43;;;;;;;19.42;11.85;;;;;;;24.53;60.41;101438.94;5110196;28;20028;-61
2022/07/31 10:59:09;;;;;;;19.15;10.95;;;;;;;24.37;60.15;101439.16;5110305;28;20028;-62
2022/07/31 11:01:48;;;;;;;19.30;11.45;;;;;;;24.50;60.11;101451.00;5109780;28;20467;-61
2022/07/31 11:04:25;;;;;;;19.08;10.75;;;;;;;24.29;60.75;101453.22;5109653;28;20041;-61
2022/07/31 11:06:50;;;;;;;18.23;10.80;;;;;;;24.06;61.26;101450.53;5109642;28;20079;-61
2022/07/31 11:09:23;;;;;;;18.95;10.75;;;;;;;23.85;62.17;101456.69;5109555;28;20024;-61
2022/07/31 11:11:49;;;;;;;19.58;10.93;;;;;;;23.66;62.84;101452.00;5109651;28;20020;-61